createdAt,value
2023-02-01T00:00:32.846Z,99623.07
2023-02-01T00:02:37.369Z,99605.31
2023-02-01T00:04:41.897Z,99608.42
2023-02-01T00:06:46.287Z,99608.48
2023-02-01T00:08:50.757Z,99609.41
2023-02-01T00:10:55.127Z,99610.94
2023-02-01T00:12:59.485Z,99610.06
2023-02-01T00:15:03.846Z,99604.91
2023-02-01T00:17:08.179Z,99612.83
2023-02-01T00:19:12.539Z,99620.98
2023-02-01T00:21:16.937Z,99614.84
2023-02-01T00:23:21.366Z,99617.13
2023-02-01T00:25:25.779Z,99620.02
2023-02-01T00:27:30.191Z,99615.94
2023-02-01T00:29:34.513Z,99616.37
2023-02-01T00:31:39.184Z,99622.33
2023-02-01T00:33:43.769Z,99621.23
2023-02-01T00:35:48.106Z,99630.98
2023-02-01T00:37:52.475Z,99616.47
2023-02-01T00:39:57.004Z,99622.01
2023-02-01T00:42:01.398Z,99620.34
2023-02-01T00:44:05.785Z,99619.48
2023-02-01T00:46:10.340Z,99620.44
2023-02-01T00:48:14.826Z,99624.61
2023-02-01T00:50:19.511Z,99620.33
2023-02-01T00:52:24.515Z,99620.05
2023-02-01T00:54:28.837Z,99613.38
2023-02-01T00:56:33.179Z,99619.02
2023-02-01T00:58:37.679Z,99619.61
2023-02-01T01:00:42.108Z,99624.23
2023-02-01T01:02:46.585Z,99622.28
2023-02-01T01:04:50.972Z,99625.44
2023-02-01T01:06:55.333Z,99629.25
2023-02-01T01:08:59.677Z,99629.11
2023-02-01T01:11:04.090Z,99639.7
2023-02-01T01:13:08.451Z,99637.65
2023-02-01T01:15:12.793Z,99634.97
2023-02-01T01:17:17.168Z,99636.17
2023-02-01T01:19:21.518Z,99644.52
2023-02-01T01:21:25.899Z,99644.28
2023-02-01T01:23:31.481Z,99644.86
2023-02-01T01:25:35.892Z,99641.36
2023-02-01T01:27:40.261Z,99660.11
2023-02-01T01:29:44.651Z,99681.08
2023-02-01T01:31:49.190Z,99664.59
2023-02-01T01:33:53.638Z,99648.28
2023-02-01T01:35:57.977Z,99622.49
2023-02-01T01:38:02.362Z,99632.24
2023-02-01T01:40:06.692Z,99646.55
2023-02-01T01:42:11.083Z,99650.34
2023-02-01T01:44:15.485Z,99645.63
2023-02-01T01:46:19.859Z,99636.27
2023-02-01T01:48:24.388Z,99649.42
2023-02-01T01:50:28.735Z,99648.08
2023-02-01T01:52:33.053Z,99647.16
2023-02-01T01:54:37.440Z,99640.75
2023-02-01T01:56:41.776Z,99639.46
2023-02-01T01:58:46.090Z,99646.83
2023-02-01T02:00:50.647Z,99645.77
2023-02-01T02:02:55.106Z,99645.64
2023-02-01T02:04:59.445Z,99646.81
2023-02-01T02:07:03.774Z,99651.38
2023-02-01T02:09:08.288Z,99651.8
2023-02-01T02:11:12.643Z,99645.38
2023-02-01T02:13:16.968Z,99638.7
2023-02-01T02:15:21.294Z,99641.37
2023-02-01T02:17:25.661Z,99632.63
2023-02-01T02:19:29.998Z,99635.17
2023-02-01T02:21:34.475Z,99638.99
2023-02-01T02:23:38.809Z,99634.83
2023-02-01T02:25:43.178Z,99632.33
2023-02-01T02:27:47.532Z,99641.23
2023-02-01T02:29:52.020Z,99639.23
2023-02-01T02:31:56.563Z,99641
2023-02-01T02:34:01.173Z,99630.91
2023-02-01T02:36:05.476Z,99633.64
2023-02-01T02:38:09.871Z,99625.3
2023-02-01T02:40:14.193Z,99625.2
2023-02-01T02:42:18.534Z,99630.52
2023-02-01T02:44:22.887Z,99629.3
2023-02-01T02:46:27.212Z,99632.11
2023-02-01T02:48:31.609Z,99627.42
2023-02-01T02:50:36.031Z,99623.59
2023-02-01T02:52:40.391Z,99622.26
2023-02-01T02:54:44.846Z,99638.2
2023-02-01T02:56:49.182Z,99628.66
2023-02-01T02:58:53.549Z,99640.58
2023-02-01T03:00:58.031Z,99626.66
2023-02-01T03:03:02.429Z,99631.68
2023-02-01T03:05:06.790Z,99640.28
2023-02-01T03:07:11.107Z,99639.92
2023-02-01T03:09:15.463Z,99641
2023-02-01T03:11:19.827Z,99637.14
2023-02-01T03:13:24.249Z,99632.97
2023-02-01T03:15:28.617Z,99641.87
2023-02-01T03:17:32.932Z,99635.77
2023-02-01T03:19:37.341Z,99638.51
2023-02-01T03:21:41.824Z,99644.23
2023-02-01T03:23:46.136Z,99637.94
2023-02-01T03:25:50.458Z,99632.78
2023-02-01T03:27:54.808Z,99624.45
2023-02-01T03:29:59.153Z,99636.09
2023-02-01T03:32:03.707Z,99636.41
2023-02-01T03:34:08.117Z,99635.94
2023-02-01T03:36:12.471Z,99642.2
2023-02-01T03:38:16.821Z,99642.12
2023-02-01T03:40:21.880Z,99635.38
2023-02-01T03:42:26.922Z,99631.47
2023-02-01T03:44:31.263Z,99623.5
2023-02-01T03:46:35.621Z,99624.98
2023-02-01T03:48:39.987Z,99625.77
2023-02-01T03:50:44.351Z,99623.98
2023-02-01T03:52:48.700Z,99623.65
2023-02-01T03:54:53.040Z,99622.45
2023-02-01T03:56:57.376Z,99625.5
2023-02-01T03:59:01.812Z,99629.17
2023-02-01T04:01:06.205Z,99620.45
2023-02-01T04:03:10.640Z,99615.98
2023-02-01T04:05:15.017Z,99611.31
2023-02-01T04:07:19.473Z,99611.18
2023-02-01T04:09:23.811Z,99606.92
2023-02-01T04:11:28.126Z,99613.79
2023-02-01T04:13:32.481Z,99615.44
2023-02-01T04:15:36.894Z,99610.26
2023-02-01T04:17:41.222Z,99614.88
2023-02-01T04:19:45.667Z,99606.79
2023-02-01T04:21:50.031Z,99607.28
2023-02-01T04:23:54.375Z,99603.48
2023-02-01T04:25:58.735Z,99608.89
2023-02-01T04:28:03.074Z,99605.72
2023-02-01T04:30:07.427Z,99605.77
2023-02-01T04:32:11.748Z,99604.78
2023-02-01T04:34:16.050Z,99606.63
2023-02-01T04:36:20.418Z,99602.8
2023-02-01T04:38:24.760Z,99599.59
2023-02-01T04:40:29.134Z,99605.28
2023-02-01T04:42:33.551Z,99601.13
2023-02-01T04:44:37.848Z,99599.64
2023-02-01T04:46:42.202Z,99603.16
2023-02-01T04:48:46.534Z,99599.97
2023-02-01T04:50:50.940Z,99598.59
2023-02-01T04:52:55.278Z,99599.81
2023-02-01T04:55:00.531Z,99597.56
2023-02-01T04:57:04.922Z,99593.69
2023-02-01T04:59:09.325Z,99598.24
2023-02-01T05:01:13.806Z,99601.62
2023-02-01T05:03:18.290Z,99591.2
2023-02-01T05:05:22.636Z,99598.03
2023-02-01T05:07:26.966Z,99592.05
2023-02-01T05:09:31.294Z,99597.25
2023-02-01T05:11:35.628Z,99586.38
2023-02-01T05:13:39.980Z,99593.64
2023-02-01T05:15:44.409Z,99590.6
2023-02-01T05:17:48.823Z,99586
2023-02-01T05:19:53.140Z,99586.72
2023-02-01T05:21:57.468Z,99581.34
2023-02-01T05:24:01.842Z,99582.03
2023-02-01T05:26:06.158Z,99581
2023-02-01T05:28:10.548Z,99585.46
2023-02-01T05:30:14.943Z,99592
2023-02-01T05:32:23.843Z,99586.4
2023-02-01T05:34:28.341Z,99580.37
2023-02-01T05:36:32.685Z,99583.2
2023-02-01T05:38:37.018Z,99581.67
2023-02-01T05:40:41.430Z,99583.66
2023-02-01T05:42:45.749Z,99584.89
2023-02-01T05:44:50.161Z,99569.68
2023-02-01T05:46:54.471Z,99577.95
2023-02-01T05:48:58.831Z,99563.81
2023-02-01T05:51:03.139Z,99570.23
2023-02-01T05:53:07.452Z,99562.3
2023-02-01T05:55:11.829Z,99567.59
2023-02-01T05:57:16.198Z,99567.3
2023-02-01T05:59:20.611Z,99569.03
2023-02-01T06:01:24.943Z,99566.61
2023-02-01T06:03:29.362Z,99558.14
2023-02-01T06:05:33.851Z,99557.74
2023-02-01T06:07:38.273Z,99563.83
2023-02-01T06:09:42.685Z,99554.2
2023-02-01T06:11:47.053Z,99556.41
2023-02-01T06:13:51.392Z,99549.34
2023-02-01T06:15:55.882Z,99555.02
2023-02-01T06:18:00.372Z,99549.45
2023-02-01T06:20:04.667Z,99550.53
2023-02-01T06:22:09.132Z,99553.09
2023-02-01T06:24:13.474Z,99551.02
2023-02-01T06:26:17.949Z,99556.67
2023-02-01T06:28:22.439Z,99556.36
2023-02-01T06:30:27.130Z,99551.36
2023-02-01T06:32:31.511Z,99547.59
2023-02-01T06:34:35.820Z,99548.88
2023-02-01T06:36:40.239Z,99557.83
2023-02-01T06:38:44.601Z,99556.5
2023-02-01T06:40:48.940Z,99563.02
2023-02-01T06:42:53.274Z,99559.89
2023-02-01T06:44:57.688Z,99555.36
2023-02-01T06:47:02.156Z,99563.23
2023-02-01T06:49:06.524Z,99567.42
2023-02-01T06:51:10.872Z,99565.25
2023-02-01T06:53:16.248Z,99570.77
2023-02-01T06:55:20.609Z,99575.08
2023-02-01T06:57:24.973Z,99577.97
2023-02-01T06:59:29.347Z,99577.03
2023-02-01T07:01:33.771Z,99577.13
2023-02-01T07:03:38.189Z,99579.38
2023-02-01T07:05:42.522Z,99582.44
2023-02-01T07:07:46.915Z,99582.36
2023-02-01T07:09:51.348Z,99577.84
2023-02-01T07:11:55.681Z,99577.86
2023-02-01T07:14:00.016Z,99581.89
2023-02-01T07:16:04.491Z,99583.33
2023-02-01T07:18:08.901Z,99595.58
2023-02-01T07:20:13.267Z,99588.63
2023-02-01T07:22:17.632Z,99591.28
2023-02-01T07:24:22.098Z,99583.31
2023-02-01T07:26:26.737Z,99586.45
2023-02-01T07:28:31.197Z,99589.18
2023-02-01T07:30:35.857Z,99590.16
2023-02-01T07:32:40.369Z,99588.44
2023-02-01T07:34:45.632Z,99588.88
2023-02-01T07:36:50.031Z,99592.34
2023-02-01T07:38:57.418Z,99588.11
2023-02-01T07:41:01.779Z,99584.38
2023-02-01T07:43:06.154Z,99593.56
2023-02-01T07:45:22.096Z,99584.95
2023-02-01T07:47:26.417Z,99588.15
2023-02-01T07:49:30.873Z,99576.39
2023-02-01T07:51:35.348Z,99583.27
2023-02-01T07:53:39.733Z,99582.67
2023-02-01T07:55:44.193Z,99579.48
2023-02-01T07:57:48.542Z,99569.23
2023-02-01T07:59:52.948Z,99568.39
2023-02-01T08:01:57.479Z,99572.53
2023-02-01T08:04:02.089Z,99568.91
2023-02-01T08:06:07.163Z,99573.08
2023-02-01T08:08:11.544Z,99570.69
2023-02-01T08:10:15.901Z,99565.68
2023-02-01T08:12:20.309Z,99564.69
2023-02-01T08:14:24.660Z,99566.72
2023-02-01T08:16:29.189Z,99558.52
2023-02-01T08:18:33.675Z,99558.89
2023-02-01T08:20:38.189Z,99560.77
2023-02-01T08:22:42.574Z,99555.38
2023-02-01T08:24:46.894Z,99556.14
2023-02-01T08:26:51.395Z,99553.01
2023-02-01T08:28:55.842Z,99549.41
2023-02-01T08:31:00.404Z,99550.62
2023-02-01T08:33:04.992Z,99546.05
2023-02-01T08:35:09.313Z,99546.09
2023-02-01T08:37:13.686Z,99542.84
2023-02-01T08:39:17.951Z,99549.48
2023-02-01T08:41:22.320Z,99549.92
2023-02-01T08:43:26.703Z,99551.16
2023-02-01T08:45:31.067Z,99563.23
2023-02-01T08:47:35.413Z,99556.45
2023-02-01T08:49:39.800Z,99557.96
2023-02-01T08:51:44.143Z,99562.73
2023-02-01T08:53:48.743Z,99556.44
2023-02-01T08:55:53.103Z,99569.02
2023-02-01T08:57:57.460Z,99565.42
2023-02-01T09:00:01.987Z,99556.53
2023-02-01T09:02:06.404Z,99557.17
2023-02-01T09:04:10.830Z,99554.73
2023-02-01T09:06:15.463Z,99554.61
2023-02-01T09:08:19.838Z,99548.78
2023-02-01T09:10:35.764Z,99555.84
2023-02-01T09:12:40.982Z,99551.17
2023-02-01T09:14:45.432Z,99545.64
2023-02-01T09:16:49.960Z,99540.21
2023-02-01T09:19:24.177Z,99546.75
2023-02-01T09:21:30.615Z,99538.47
2023-02-01T09:23:35.051Z,99536.64
2023-02-01T09:25:39.534Z,99535.98
2023-02-01T09:27:43.932Z,99547.37
2023-02-01T09:29:48.264Z,99539.53
2023-02-01T09:32:04.851Z,99540.28
2023-02-01T09:34:09.641Z,99539.9
2023-02-01T09:36:14.024Z,99532.63
2023-02-01T09:38:18.411Z,99531.16
2023-02-01T09:40:23.814Z,99527.25
2023-02-01T09:42:31.331Z,99529.55
2023-02-01T09:44:45.396Z,99536.6
2023-02-01T09:46:49.762Z,99528.75
2023-02-01T09:48:54.095Z,99528.72
2023-02-01T09:50:58.469Z,99528.02
2023-02-01T09:53:02.863Z,99523.13
2023-02-01T09:55:07.271Z,99526.05
2023-02-01T09:57:11.729Z,99515.91
2023-02-01T09:59:16.078Z,99510.75
2023-02-01T10:01:20.574Z,99510.53
2023-02-01T10:03:25.147Z,99508.17
2023-02-01T10:05:29.616Z,99505.41
2023-02-01T10:07:34.167Z,99505.55
2023-02-01T10:09:38.569Z,99499.64
2023-02-01T10:11:42.953Z,99494.55
2023-02-01T10:13:47.303Z,99503.13
2023-02-01T10:15:51.900Z,99494.8
2023-02-01T10:17:59.095Z,99488.73
2023-02-01T10:20:03.518Z,99484.58
2023-02-01T10:22:07.943Z,99486.13
2023-02-01T10:24:18.805Z,99494.25
2023-02-01T10:26:23.414Z,99483.79
2023-02-01T10:28:27.905Z,99476.73
2023-02-01T10:30:35.807Z,99476.52
2023-02-01T10:32:40.348Z,99477.34
2023-02-01T10:34:44.692Z,99475.33
2023-02-01T10:36:49.247Z,99466.73
2023-02-01T10:38:53.630Z,99463.39
2023-02-01T10:40:58.066Z,99460.78
2023-02-01T10:43:02.446Z,99459.51
2023-02-01T10:45:06.857Z,99451.83
2023-02-01T10:47:11.651Z,99461.28
2023-02-01T10:49:15.995Z,99450.98
2023-02-01T10:51:20.340Z,99454.84
2023-02-01T10:53:24.724Z,99456.28
2023-02-01T10:55:29.087Z,99452.93
2023-02-01T10:57:33.449Z,99455.21
2023-02-01T10:59:37.829Z,99456.22
2023-02-01T11:01:42.461Z,99457.57
2023-02-01T11:03:46.866Z,99454.97
2023-02-01T11:05:51.224Z,99446.56
2023-02-01T11:07:55.635Z,99444.02
2023-02-01T11:10:00.083Z,99441.59
2023-02-01T11:12:04.430Z,99437.61
2023-02-01T11:14:08.742Z,99437.3
2023-02-01T11:16:13.242Z,99434.83
2023-02-01T11:18:17.690Z,99433.49
2023-02-01T11:20:22.087Z,99423.37
2023-02-01T11:22:26.447Z,99421.54
2023-02-01T11:24:30.860Z,99423.73
2023-02-01T11:26:35.341Z,99419.17
2023-02-01T11:28:39.810Z,99427.09
2023-02-01T11:30:44.303Z,99415.56
2023-02-01T11:32:48.790Z,99425.22
2023-02-01T11:34:53.174Z,99406.11
2023-02-01T11:36:57.503Z,99418.69
2023-02-01T11:39:01.843Z,99404.83
2023-02-01T11:41:08.523Z,99400.02
2023-02-01T11:43:12.957Z,99392.66
2023-02-01T11:45:17.312Z,99397.82
2023-02-01T11:47:21.894Z,99395.81
2023-02-01T11:49:26.272Z,99394.45
2023-02-01T11:51:30.724Z,99397.55
2023-02-01T11:53:35.244Z,99395.52
2023-02-01T11:55:39.858Z,99396.42
2023-02-01T11:57:44.377Z,99393.41
2023-02-01T11:59:57.582Z,99388.33
2023-02-01T12:02:02.161Z,99399.34
2023-02-01T12:04:06.658Z,99394.42
2023-02-01T12:06:11.027Z,99398.48
2023-02-01T12:08:15.537Z,99392.2
2023-02-01T12:10:19.943Z,99389.98
2023-02-01T12:12:24.627Z,99387.82
2023-02-01T12:14:29.069Z,99384.88
2023-02-01T12:16:33.666Z,99376.28
2023-02-01T12:18:38.137Z,99389.84
2023-02-01T12:20:42.529Z,99394.05
2023-02-01T12:22:46.907Z,99387.95
2023-02-01T12:24:51.257Z,99390.59
2023-02-01T12:26:55.890Z,99369.95
2023-02-01T12:29:00.475Z,99390.25
2023-02-01T12:31:05.082Z,99391.89
2023-02-01T12:33:09.630Z,99384.56
2023-02-01T12:35:14.034Z,99392.63
2023-02-01T12:37:18.480Z,99392.25
2023-02-01T12:39:22.808Z,99391.98
2023-02-01T12:41:27.176Z,99398.2
2023-02-01T12:43:31.559Z,99394.69
2023-02-01T12:45:36.042Z,99396.83
2023-02-01T12:47:40.661Z,99400.48
2023-02-01T12:49:45.064Z,99397.52
2023-02-01T12:51:49.417Z,99401.06
2023-02-01T12:53:53.861Z,99393.94
2023-02-01T12:55:58.218Z,99399.08
2023-02-01T12:58:02.581Z,99407.08
2023-02-01T13:00:06.975Z,99413.78
2023-02-01T13:02:11.543Z,99419.86
2023-02-01T13:04:16.061Z,99419.45
2023-02-01T13:06:20.458Z,99416.58
2023-02-01T13:08:24.832Z,99420.2
2023-02-01T13:10:29.175Z,99415.19
2023-02-01T13:12:33.640Z,99418.06
2023-02-01T13:14:38.038Z,99425.86
2023-02-01T13:16:42.576Z,99429.49
2023-02-01T13:18:47.122Z,99426.53
2023-02-01T13:20:51.476Z,99430.13
2023-02-01T13:22:55.850Z,99423.16
2023-02-01T13:25:00.266Z,99441.53
2023-02-01T13:27:04.784Z,99434.83
2023-02-01T13:29:09.222Z,99439.47
2023-02-01T13:31:13.852Z,99437.06
2023-02-01T13:33:56.878Z,99444.26
2023-02-01T13:36:01.403Z,99445.03
2023-02-01T13:38:05.862Z,99435.93
2023-02-01T13:40:10.210Z,99443.23
2023-02-01T13:42:14.682Z,99443
2023-02-01T13:44:19.069Z,99444.41
2023-02-01T13:46:23.526Z,99442.83
2023-02-01T13:48:28.004Z,99445.89
2023-02-01T13:50:32.275Z,99441.28
2023-02-01T13:52:36.600Z,99450.23
2023-02-01T13:54:41.036Z,99452.17
2023-02-01T13:56:45.424Z,99451.38
2023-02-01T13:58:49.868Z,99444.06
2023-02-01T14:00:54.209Z,99447.34
2023-02-01T14:02:58.610Z,99444.06
2023-02-01T14:05:03.043Z,99445.64
2023-02-01T14:07:07.387Z,99461.56
2023-02-01T14:09:15.489Z,99452.03
2023-02-01T14:11:19.832Z,99447.98
2023-02-01T14:13:24.257Z,99448.68
2023-02-01T14:15:29.093Z,99455.25
2023-02-01T14:17:33.693Z,99453.31
2023-02-01T14:19:38.280Z,99455.91
2023-02-01T14:21:42.792Z,99452.6
2023-02-01T14:23:47.196Z,99450.45
2023-02-01T14:25:51.554Z,99457.61
2023-02-01T14:27:55.995Z,99454.09
2023-02-01T14:30:00.411Z,99453.77
2023-02-01T14:32:05.030Z,99443.42
2023-02-01T14:34:09.469Z,99447.67
2023-02-01T14:36:13.864Z,99439.58
2023-02-01T14:38:18.417Z,99426.38
2023-02-01T14:40:22.825Z,99435.59
2023-02-01T14:42:27.516Z,99436.62
2023-02-01T14:44:31.915Z,99436.05
2023-02-01T14:46:37.007Z,99439.73
2023-02-01T14:48:41.605Z,99439.51
2023-02-01T14:50:46.006Z,99443.13
2023-02-01T14:52:50.336Z,99444.63
2023-02-01T14:54:54.687Z,99447.7
2023-02-01T14:56:59.042Z,99452.41
2023-02-01T14:59:03.439Z,99447.84
2023-02-01T15:01:08.185Z,99447.73
2023-02-01T15:03:12.668Z,99439.73
2023-02-01T15:05:17.013Z,99437.88
2023-02-01T15:07:21.398Z,99439.08
2023-02-01T15:09:25.795Z,99437.88
2023-02-01T15:11:30.324Z,99443.1
2023-02-01T15:13:34.846Z,99441.86
2023-02-01T15:15:39.359Z,99441.65
2023-02-01T15:17:43.884Z,99453.66
2023-02-01T15:19:48.280Z,99450.78
2023-02-01T15:21:52.600Z,99448.79
2023-02-01T15:23:57.064Z,99455.66
2023-02-01T15:26:01.385Z,99459.45
2023-02-01T15:28:05.744Z,99454.67
2023-02-01T15:30:10.115Z,99456.61
2023-02-01T15:32:14.661Z,99450.66
2023-02-01T15:34:19.254Z,99461.29
2023-02-01T15:36:23.627Z,99449.78
2023-02-01T15:38:28.086Z,99449.34
2023-02-01T15:40:32.468Z,99454.91
2023-02-01T15:42:36.806Z,99459.23
2023-02-01T15:44:41.172Z,99460.66
2023-02-01T15:46:45.778Z,99460.62
2023-02-01T15:48:50.193Z,99470.09
2023-02-01T15:50:54.618Z,99460.56
2023-02-01T15:52:59.053Z,99464.62
2023-02-01T15:55:03.508Z,99468.78
2023-02-01T15:57:07.918Z,99462.55
2023-02-01T15:59:12.247Z,99457.05
2023-02-01T16:01:16.542Z,99459.33
2023-02-01T16:03:21.034Z,99471.93
2023-02-01T16:05:26.289Z,99468.61
2023-02-01T16:07:30.853Z,99473.34
2023-02-01T16:09:35.202Z,99473.8
2023-02-01T16:11:39.524Z,99467.03
2023-02-01T16:13:43.825Z,99470.61
2023-02-01T16:15:48.329Z,99472.23
2023-02-01T16:17:52.808Z,99480.25
2023-02-01T16:19:57.187Z,99478.31
2023-02-01T16:22:01.601Z,99481.8
2023-02-01T16:24:07.639Z,99472.33
2023-02-01T16:26:12.011Z,99473.34
2023-02-01T16:28:16.355Z,99467.97
2023-02-01T16:30:20.667Z,99465.59
2023-02-01T16:32:25.101Z,99464.8
2023-02-01T16:34:29.530Z,99468.7
2023-02-01T16:36:34.032Z,99470.5
2023-02-01T16:38:38.457Z,99468.89
2023-02-01T16:40:42.839Z,99465.11
2023-02-01T16:42:47.192Z,99460.78
2023-02-01T16:44:51.647Z,99458.7
2023-02-01T16:46:56.075Z,99461.25
2023-02-01T16:49:00.430Z,99459.95
2023-02-01T16:51:04.937Z,99452.61
2023-02-01T16:53:09.307Z,99450.95
2023-02-01T16:55:13.682Z,99455.61
2023-02-01T16:57:18.154Z,99451.8
2023-02-01T16:59:22.581Z,99442.94
2023-02-01T17:01:27.175Z,99441.58
2023-02-01T17:03:31.702Z,99435.36
2023-02-01T17:05:36.031Z,99434.55
2023-02-01T17:07:40.405Z,99431.85
2023-02-01T17:09:44.768Z,99432.09
2023-02-01T17:11:49.144Z,99430.48
2023-02-01T17:13:53.515Z,99428.05
2023-02-01T17:15:58.009Z,99428.78
2023-02-01T17:18:02.494Z,99424.03
2023-02-01T17:20:06.943Z,99421.61
2023-02-01T17:22:11.410Z,99421.9
2023-02-01T17:24:15.861Z,99417.05
2023-02-01T17:26:20.325Z,99413.36
2023-02-01T17:28:24.778Z,99409.88
2023-02-01T17:30:29.138Z,99403.91
2023-02-01T17:32:33.579Z,99399.23
2023-02-01T17:34:38.777Z,99398.84
2023-02-01T17:36:45.950Z,99397.56
2023-02-01T17:39:06.667Z,99397.05
2023-02-01T17:41:11.187Z,99390.69
2023-02-01T17:43:15.587Z,99392.23
2023-02-01T17:45:19.915Z,99383.54
2023-02-01T17:47:24.320Z,99383.3
2023-02-01T17:49:28.630Z,99382.59
2023-02-01T17:51:32.926Z,99381.8
2023-02-01T17:53:37.182Z,99383.68
2023-02-01T17:55:41.604Z,99385.45
2023-02-01T17:57:46.010Z,99384.81
2023-02-01T17:59:50.436Z,99379.86
2023-02-01T18:01:54.827Z,99374.55
2023-02-01T18:03:59.226Z,99380.8
2023-02-01T18:06:03.671Z,99379.47
2023-02-01T18:08:08.044Z,99378.34
2023-02-01T18:10:12.536Z,99361.55
2023-02-01T18:12:16.945Z,99347.13
2023-02-01T18:14:21.328Z,99350.92
2023-02-01T18:16:25.868Z,99343.94
2023-02-01T18:18:33.388Z,99338.94
2023-02-01T18:20:37.788Z,99335.45
2023-02-01T18:22:42.310Z,99329.25
2023-02-01T18:24:46.670Z,99333.4
2023-02-01T18:26:51.122Z,99323.79
2023-02-01T18:28:55.815Z,99335.18
2023-02-01T18:31:00.464Z,99321.83
2023-02-01T18:33:05.061Z,99321.63
2023-02-01T18:35:09.441Z,99317.52
2023-02-01T18:37:13.831Z,99314.2
2023-02-01T18:39:18.205Z,99305.45
2023-02-01T18:41:22.705Z,99304.47
2023-02-01T18:43:27.154Z,99282.72
2023-02-01T18:45:31.537Z,99278.61
2023-02-01T18:47:35.932Z,99272.08
2023-02-01T18:49:40.343Z,99265.63
2023-02-01T18:51:44.736Z,99267.73
2023-02-01T18:53:49.184Z,99263.14
2023-02-01T18:55:55.939Z,99258.91
2023-02-01T18:58:01.385Z,99258.71
2023-02-01T19:00:05.809Z,99245.9
2023-02-01T19:02:10.464Z,99253.61
2023-02-01T19:04:27.131Z,99249.44
2023-02-01T19:06:31.816Z,99251.56
2023-02-01T19:08:36.160Z,99251.16
2023-02-01T19:10:40.535Z,99243.34
2023-02-01T19:12:44.905Z,99248.58
2023-02-01T19:14:49.251Z,99242.83
2023-02-01T19:16:53.624Z,99238.5
2023-02-01T19:18:57.981Z,99242.61
2023-02-01T19:21:02.312Z,99239.34
2023-02-01T19:23:06.828Z,99242.09
2023-02-01T19:25:11.181Z,99244.06
2023-02-01T19:27:15.500Z,99241.02
2023-02-01T19:29:19.865Z,99236.78
2023-02-01T19:31:24.440Z,99237.14
2023-02-01T19:33:28.939Z,99233.94
2023-02-01T19:35:33.279Z,99216.73
2023-02-01T19:37:37.626Z,99209.8
2023-02-01T19:39:42.035Z,99212.02
2023-02-01T19:41:46.407Z,99219.23
2023-02-01T19:43:50.807Z,99210.31
2023-02-01T19:45:55.296Z,99210.16
2023-02-01T19:47:59.648Z,99212.09
2023-02-01T19:50:04.117Z,99206.98
2023-02-01T19:52:08.475Z,99215.48
2023-02-01T19:54:12.841Z,99209.27
2023-02-01T19:56:17.237Z,99232.61
2023-02-01T19:58:21.594Z,99220.64
2023-02-01T20:00:25.074Z,99224.86
2023-02-01T20:02:29.582Z,99237.51
2023-02-01T20:04:33.952Z,99221.81
2023-02-01T20:06:38.299Z,99236.98
2023-02-01T20:08:42.851Z,99235.81
2023-02-01T20:10:47.419Z,99247.97
2023-02-01T20:12:51.939Z,99242.38
2023-02-01T20:14:56.286Z,99243.39
2023-02-01T20:17:00.641Z,99234.77
2023-02-01T20:19:05.110Z,99253.09
2023-02-01T20:21:09.451Z,99265.23
2023-02-01T20:23:13.840Z,99248.67
2023-02-01T20:25:18.199Z,99277.8
2023-02-01T20:27:23.430Z,99261.41
2023-02-01T20:29:27.804Z,99261.72
2023-02-01T20:31:32.346Z,99267.89
2023-02-01T20:33:36.823Z,99269.38
2023-02-01T20:35:41.203Z,99271.14
2023-02-01T20:37:45.498Z,99271.81
2023-02-01T20:39:49.849Z,99276.76
2023-02-01T20:41:54.201Z,99272.39
2023-02-01T20:43:58.534Z,99279.92
2023-02-01T20:46:03.052Z,99278.25
2023-02-01T20:48:07.469Z,99276
2023-02-01T20:50:11.886Z,99275.07
2023-02-01T20:52:16.221Z,99283.53
2023-02-01T20:54:20.583Z,99288.72
2023-02-01T20:56:25.056Z,99302
2023-02-01T20:58:29.423Z,99290.77
2023-02-01T21:00:33.783Z,99294.11
2023-02-01T21:02:38.299Z,99308.29
2023-02-01T21:04:42.648Z,99313.44
2023-02-01T21:06:46.985Z,99312.14
2023-02-01T21:08:51.339Z,99313.58
2023-02-01T21:10:55.656Z,99324.77
2023-02-01T21:13:06.311Z,99325.01
2023-02-01T21:15:10.731Z,99330.34
2023-02-01T21:17:15.062Z,99324.84
2023-02-01T21:19:20.134Z,99325.3
2023-02-01T21:21:24.586Z,99326.89
2023-02-01T21:23:29.014Z,99332.63
2023-02-01T21:25:33.401Z,99327.65
2023-02-01T21:27:37.740Z,99337.02
2023-02-01T21:29:42.170Z,99337.84
2023-02-01T21:31:46.672Z,99339.12
2023-02-01T21:33:51.155Z,99345.64
2023-02-01T21:35:55.714Z,99340.34
2023-02-01T21:38:00.076Z,99346.14
2023-02-01T21:40:04.399Z,99346.55
2023-02-01T21:42:08.752Z,99344.92
2023-02-01T21:44:13.085Z,99344.66
2023-02-01T21:46:17.606Z,99351.89
2023-02-01T21:48:22.107Z,99363.19
2023-02-01T21:50:26.549Z,99369.91
2023-02-01T21:52:30.997Z,99363.3
2023-02-01T21:54:35.372Z,99361.19
2023-02-01T21:56:40.778Z,99366.96
2023-02-01T21:58:45.073Z,99367.03
2023-02-01T22:00:49.543Z,99378.81
2023-02-01T22:02:53.895Z,99370.14
2023-02-01T22:04:58.187Z,99370.61
2023-02-01T22:07:02.559Z,99369.17
2023-02-01T22:09:06.987Z,99382.64
2023-02-01T22:11:11.328Z,99377.08
2023-02-01T22:13:15.689Z,99380.26
2023-02-01T22:15:19.999Z,99383.03
2023-02-01T22:17:24.386Z,99383.69
2023-02-01T22:19:28.762Z,99383.82
2023-02-01T22:21:33.096Z,99389.02
2023-02-01T22:23:37.483Z,99384.55
2023-02-01T22:25:41.853Z,99386.73
2023-02-01T22:28:34.369Z,99394.83
2023-02-01T22:30:39.055Z,99397.56
2023-02-01T22:32:43.555Z,99392.19
2023-02-01T22:34:47.946Z,99391.64
2023-02-01T22:36:52.292Z,99393.55
2023-02-01T22:38:56.723Z,99390.63
2023-02-01T22:41:01.100Z,99398.32
2023-02-01T22:43:05.464Z,99400.49
2023-02-01T22:45:09.834Z,99405.77
2023-02-01T22:47:14.222Z,99404.99
2023-02-01T22:49:18.595Z,99407.42
2023-02-01T22:51:22.885Z,99408.63
2023-02-01T22:53:27.321Z,99409.39
2023-02-01T22:55:31.719Z,99405.23
2023-02-01T22:57:36.069Z,99411.15
2023-02-01T22:59:40.455Z,99417.61
2023-02-01T23:01:44.845Z,99420.05
2023-02-01T23:03:49.286Z,99416.81
2023-02-01T23:05:53.634Z,99417.48
2023-02-01T23:07:57.987Z,99417.53
2023-02-01T23:10:02.370Z,99409
2023-02-01T23:12:06.708Z,99421.72
2023-02-01T23:14:11.277Z,99428.17
2023-02-01T23:16:15.885Z,99426.84
2023-02-01T23:18:20.517Z,99431.45
2023-02-01T23:20:25.043Z,99422.7
2023-02-01T23:22:29.654Z,99427.94
2023-02-01T23:24:34.234Z,99435.59
2023-02-01T23:26:38.908Z,99433.05
2023-02-01T23:28:43.715Z,99434.35
2023-02-01T23:30:48.608Z,99432.28
2023-02-01T23:32:53.317Z,99430.91
2023-02-01T23:34:58.055Z,99428.34
2023-02-01T23:37:02.639Z,99427.61
2023-02-01T23:39:07.319Z,99426.86
2023-02-01T23:41:12.041Z,99427.72
2023-02-01T23:43:16.625Z,99427.14
2023-02-01T23:45:21.194Z,99425.84
2023-02-01T23:47:26.323Z,99427.44
2023-02-01T23:49:30.882Z,99421.27
2023-02-01T23:51:35.461Z,99424.8
2023-02-01T23:53:40.006Z,99415.52
2023-02-01T23:55:44.633Z,99416.63
2023-02-01T23:57:49.301Z,99420.09
2023-02-01T23:59:53.856Z,99418.09
